Time;durP1;ratioP1;P1;durP2;ratioP2;P2;SDS_P1;SDS_P2;PMS_P1;PMS_P2;Temp;Humidity;BMP_temperature;BMP_pressure;BME280_temperature;BME280_humidity;BME280_pressure;Samples;Min_cycle;Max_cycle;Signal;HPM_P1;HPM_P2
2022/02/18 00:00:48;;;;;;;17.88;2.85;;;;;;;7.71;76.96;100954.28;5047006;28;20467;-45
2022/02/18 00:03:16;;;;;;;29.45;2.35;;;;;;;7.69;77.39;100957.13;5071945;28;20483;-44
2022/02/18 00:05:42;;;;;;;;;;;;;;;7.70;77.74;100961.47;5068150;28;20025;-48
2022/02/18 00:08:08;;;;;;;12.88;2.10;;;;;;;7.71;77.30;100946.25;5051564;28;19917;-44
2022/02/18 00:10:33;;;;;;;27.40;2.65;;;;;;;7.70;77.67;100945.41;5056302;28;20490;-45
2022/02/18 00:12:59;;;;;;;29.17;3.83;;;;;;;7.69;77.53;100943.75;5075438;28;20036;-46
2022/02/18 00:15:24;;;;;;;26.98;2.80;;;;;;;7.70;77.81;100933.84;5050614;28;20036;-46
2022/02/18 00:17:50;;;;;;;31.30;3.42;;;;;;;7.70;77.98;100937.38;5041251;28;20028;-45
2022/02/18 00:20:15;;;;;;;21.35;2.70;;;;;;;7.70;77.93;100950.75;5070217;28;20021;-45
2022/02/18 00:22:41;;;;;;;21.65;3.00;;;;;;;7.70;78.02;100940.03;5040296;28;20387;-44
2022/02/18 00:25:10;;;;;;;27.58;3.35;;;;;;;7.72;78.39;100931.03;5073157;28;20029;-44
2022/02/18 00:27:39;;;;;;;22.15;4.20;;;;;;;7.70;78.35;100926.66;5059281;28;20029;-44
2022/02/18 00:30:05;;;;;;;19.25;2.58;;;;;;;7.72;78.79;100923.00;5062743;28;20036;-44
2022/02/18 00:32:31;;;;;;;26.08;3.80;;;;;;;7.72;78.58;100912.28;5055969;28;20082;-45
2022/02/18 00:34:57;;;;;;;30.10;3.47;;;;;;;7.70;78.85;100905.22;5063324;28;20425;-45
2022/02/18 00:37:22;;;;;;;25.90;3.28;;;;;;;7.71;78.69;100919.44;5074697;28;20028;-46
2022/02/18 00:39:47;;;;;;;36.15;3.88;;;;;;;7.68;79.04;100920.59;5047952;28;20025;-44
2022/02/18 00:42:13;;;;;;;32.80;3.33;;;;;;;7.68;79.08;100919.78;5056069;28;20555;-44
2022/02/18 00:44:38;;;;;;;34.38;3.13;;;;;;;7.68;79.06;100925.97;5056904;28;20364;-43
2022/02/18 00:47:05;;;;;;;35.55;3.63;;;;;;;7.69;79.54;100916.94;5055764;28;20033;-43
2022/02/18 00:49:30;;;;;;;26.45;3.72;;;;;;;7.68;79.11;100914.41;5061467;28;20459;-45
2022/02/18 00:51:56;;;;;;;35.05;3.90;;;;;;;7.69;79.45;100916.94;5039609;28;20029;-45
2022/02/18 00:54:21;;;;;;;36.25;4.05;;;;;;;7.69;79.39;100911.59;5059269;28;20031;-44
2022/02/18 00:56:46;;;;;;;45.20;4.05;;;;;;;7.70;79.42;100907.06;5073937;28;20033;-43
2022/02/18 00:59:12;;;;;;;39.22;4.00;;;;;;;7.68;79.11;100903.69;5074934;28;20021;-45
2022/02/18 01:01:37;;;;;;;32.95;3.25;;;;;;;7.69;79.31;100892.84;5057671;28;20024;-43
2022/02/18 01:04:03;;;;;;;34.60;3.42;;;;;;;7.70;79.23;100886.47;5057280;28;20021;-46
2022/02/18 01:06:29;;;;;;;35.13;3.22;;;;;;;7.72;78.57;100882.81;5066328;28;20122;-44
2022/02/18 01:08:55;;;;;;;32.92;3.70;;;;;;;7.74;78.93;100875.41;5057179;28;20033;-47
2022/02/18 01:11:21;;;;;;;28.88;4.20;;;;;;;7.76;78.62;100878.78;5069043;28;20033;-43
2022/02/18 01:13:47;;;;;;;28.35;4.22;;;;;;;7.77;78.84;100875.13;5056800;28;20035;-44
2022/02/18 01:16:14;;;;;;;32.13;4.50;;;;;;;7.79;78.17;100884.66;5067094;28;20036;-43
2022/02/18 01:18:40;;;;;;;33.22;3.50;;;;;;;7.80;78.48;100882.81;5074919;28;20032;-43
2022/02/18 01:21:05;;;;;;;30.88;3.38;;;;;;;7.81;78.48;100874.59;5059935;28;20098;-43
2022/02/18 01:23:31;;;;;;;38.10;3.92;;;;;;;7.83;78.25;100880.66;5036208;28;20392;-42
2022/02/18 01:25:56;;;;;;;30.50;3.55;;;;;;;7.82;78.37;100864.72;5041711;28;20036;-44
2022/02/18 01:28:22;;;;;;;40.60;4.18;;;;;;;7.82;78.46;100870.94;5054756;28;20037;-42
2022/02/18 01:30:47;;;;;;;53.92;5.05;;;;;;;7.80;79.76;100854.19;5049766;28;20041;-44
2022/02/18 01:33:13;;;;;;;52.22;6.68;;;;;;;7.78;80.95;100844.63;5074835;28;20054;-44
2022/02/18 01:35:38;;;;;;;52.92;6.07;;;;;;;7.74;81.44;100845.94;5069537;28;20034;-47
2022/02/18 01:38:05;;;;;;;59.33;7.20;;;;;;;7.72;81.89;100842.63;5056998;28;20029;-46
2022/02/18 01:40:31;;;;;;;53.38;6.25;;;;;;;7.70;82.24;100840.94;5072809;28;20039;-42
2022/02/18 01:42:57;;;;;;;61.22;6.97;;;;;;;7.70;82.48;100838.25;5056759;28;20020;-47
2022/02/18 01:45:22;;;;;;;54.83;5.97;;;;;;;7.70;82.11;100832.88;5052328;28;20025;-43
2022/02/18 01:47:47;;;;;;;45.22;5.38;;;;;;;7.73;82.11;100809.47;5074777;28;20361;-43
2022/02/18 01:50:13;;;;;;;41.22;4.70;;;;;;;7.73;82.39;100809.47;5049095;28;20029;-45
2022/02/18 01:52:41;;;;;;;59.58;4.93;;;;;;;7.75;82.37;100799.44;5054891;28;20044;-43
2022/02/18 01:55:12;;;;;;;66.10;6.05;;;;;;;7.74;82.63;100795.06;5038770;28;20017;-44
2022/02/18 01:57:39;;;;;;;48.63;4.78;;;;;;;7.73;82.96;100777.31;5054664;28;20021;-44
2022/02/18 02:00:07;;;;;;;57.88;5.05;;;;;;;7.76;82.70;100760.91;5054059;28;20028;-45
2022/02/18 02:02:32;;;;;;;44.42;4.32;;;;;;;7.75;82.91;100756.56;5054586;28;20032;-45
2022/02/18 02:04:57;;;;;;;46.75;5.72;;;;;;;7.76;83.12;100759.06;5038768;28;20071;-46
2022/02/18 02:07:23;;;;;;;55.30;5.53;;;;;;;7.73;83.42;100755.88;5036198;28;20052;-44
2022/02/18 02:09:48;;;;;;;38.35;5.55;;;;;;;7.73;83.46;100758.56;5060594;28;20395;-45
2022/02/18 02:12:13;;;;;;;61.72;5.88;;;;;;;7.70;83.47;100747.16;5054399;28;20106;-44
2022/02/18 02:14:39;;;;;;;49.28;5.35;;;;;;;7.70;84.08;100736.44;5058562;28;20033;-44
2022/02/18 02:17:04;;;;;;;46.25;5.80;;;;;;;7.74;83.87;100733.44;5054889;28;20040;-43
2022/02/18 02:19:30;;;;;;;52.67;6.82;;;;;;;7.74;84.04;100725.41;5019218;28;20404;-44
2022/02/18 02:21:56;;;;;;;50.80;5.47;;;;;;;7.72;84.53;100722.06;5072557;28;20043;-46
2022/02/18 02:24:21;;;;;;;56.38;8.00;;;;;;;7.67;84.61;100715.34;5054614;28;20023;-46
2022/02/18 02:26:47;;;;;;;50.55;4.82;;;;;;;7.70;84.96;100709.66;5061425;28;20024;-46
2022/02/18 02:29:13;;;;;;;50.15;5.32;;;;;;;7.66;84.98;100702.97;5067925;28;20021;-45
2022/02/18 02:31:39;;;;;;;53.83;6.65;;;;;;;7.65;85.50;100695.94;5071244;28;20492;-48
2022/02/18 02:34:04;;;;;;;56.38;5.03;;;;;;;7.63;85.85;100689.06;5071356;28;20032;-44
2022/02/18 02:36:30;;;;;;;93.68;9.55;;;;;;;7.62;86.55;100682.88;5069147;28;20523;-43
2022/02/18 02:38:55;;;;;;;53.72;6.07;;;;;;;7.61;87.04;100669.63;5068549;28;20422;-43
2022/02/18 02:41:22;;;;;;;60.40;6.80;;;;;;;7.63;87.49;100671.16;5067126;28;20115;-45
2022/02/18 02:43:48;;;;;;;57.60;5.93;;;;;;;7.65;88.14;100658.44;5055995;28;20028;-44
2022/02/18 02:46:13;;;;;;;59.20;6.97;;;;;;;7.66;88.20;100664.63;5064958;28;20029;-43
2022/02/18 02:48:39;;;;;;;67.80;7.03;;;;;;;7.63;88.85;100655.06;5061667;28;20527;-44
2022/02/18 02:51:05;;;;;;;73.95;6.90;;;;;;;7.64;88.77;100653.25;5046924;28;20423;-45
2022/02/18 02:53:31;;;;;;;64.25;8.48;;;;;;;7.62;88.73;100637.34;5068907;28;20017;-43
2022/02/18 02:55:56;;;;;;;74.50;6.93;;;;;;;7.53;88.92;100633.00;5055059;28;20037;-43
2022/02/18 02:58:22;;;;;;;58.55;5.82;;;;;;;7.51;89.48;100618.94;5032965;28;20074;-44
2022/02/18 03:00:47;;;;;;;58.10;6.82;;;;;;;7.52;89.28;100617.09;5052892;28;20040;-43
2022/02/18 03:03:12;;;;;;;53.20;6.30;;;;;;;7.50;89.48;100606.53;5047378;28;20363;-46
2022/02/18 03:08:13;;;;;;;64.82;6.55;;;;;;;7.50;89.67;100601.19;5001806;23;20100;-80
2022/02/18 03:10:38;;;;;;;63.40;6.68;;;;;;;7.48;89.32;100596.00;5027521;28;20030;-81
2022/02/18 03:13:03;;;;;;;58.90;5.95;;;;;;;7.44;89.60;100583.94;5031494;28;20088;-81
2022/02/18 03:15:29;;;;;;;74.03;7.05;;;;;;;7.44;89.51;100581.28;5029125;28;20030;-77
2022/02/18 03:17:55;;;;;;;52.33;7.15;;;;;;;7.40;90.03;100571.09;5019717;28;20055;-78
2022/02/18 03:20:21;;;;;;;51.45;5.93;;;;;;;7.38;89.86;100554.34;4999703;28;20054;-79
2022/02/18 03:22:47;;;;;;;57.42;6.40;;;;;;;7.40;90.08;100547.00;4980105;28;20034;-76
2022/02/18 03:25:13;;;;;;;61.42;5.68;;;;;;;7.47;90.04;100539.94;4996435;28;20421;-78
2022/02/18 03:27:40;;;;;;;58.80;5.55;;;;;;;7.49;89.50;100516.50;4995922;28;20045;-77
2022/02/18 03:30:07;;;;;;;62.33;6.00;;;;;;;7.41;89.48;100503.97;5014700;28;20038;-78
2022/02/18 03:32:32;;;;;;;51.35;6.20;;;;;;;7.38;89.81;100493.59;5002668;28;20124;-78
2022/02/18 03:34:58;;;;;;;47.88;5.45;;;;;;;7.39;89.59;100487.22;5014340;28;20064;-78
2022/02/18 03:37:24;;;;;;;53.70;5.18;;;;;;;7.37;89.72;100475.88;4995878;28;20045;-77
2022/02/18 03:39:49;;;;;;;51.72;5.05;;;;;;;7.38;90.04;100455.28;5013668;28;20028;-78
2022/02/18 03:42:14;;;;;;;56.15;6.65;;;;;;;7.29;90.24;100448.28;5014092;28;20026;-77
2022/02/18 03:44:41;;;;;;;50.78;5.90;;;;;;;7.26;90.48;100426.19;5013386;28;20029;-78
2022/02/18 03:47:06;;;;;;;60.20;6.93;;;;;;;7.23;91.03;100406.97;5013729;28;20038;-77
2022/02/18 03:49:31;;;;;;;57.45;5.32;;;;;;;7.22;91.23;100384.72;4998956;28;20030;-77
2022/02/18 03:51:57;;;;;;;47.38;7.05;;;;;;;7.19;91.93;100401.13;4996617;28;20169;-77
2022/02/18 03:54:24;;;;;;;53.72;6.32;;;;;;;7.22;91.64;100383.91;5009826;28;20041;-77
2022/02/18 03:56:50;;;;;;;62.35;6.25;;;;;;;7.33;91.46;100386.19;5016329;28;20469;-76
2022/02/18 03:59:15;;;;;;;68.50;7.38;;;;;;;7.30;91.07;100391.06;5016240;28;20033;-78
2022/02/18 04:01:40;;;;;;;50.40;5.57;;;;;;;7.33;91.29;100388.03;5014560;28;20045;-76
2022/02/18 04:04:06;;;;;;;59.42;6.40;;;;;;;7.37;91.15;100386.69;5012929;28;20084;-77
2022/02/18 04:06:31;;;;;;;47.08;5.40;;;;;;;7.26;91.22;100366.47;5020855;28;20042;-79
2022/02/18 04:08:56;;;;;;;58.08;7.85;;;;;;;7.28;91.52;100371.66;5022423;28;20493;-77
2022/02/18 04:11:22;;;;;;;62.90;6.72;;;;;;;7.26;91.42;100380.69;5015567;28;20390;-78
2022/02/18 04:13:47;;;;;;;63.90;6.78;;;;;;;7.25;91.76;100403.09;5013774;28;20034;-78
2022/02/18 04:16:12;;;;;;;65.57;6.47;;;;;;;7.28;91.47;100387.72;5013110;28;20109;-78
2022/02/18 04:18:38;;;;;;;65.90;8.02;;;;;;;7.30;91.09;100375.00;5013665;28;20022;-78
2022/02/18 04:21:04;;;;;;;64.68;6.55;;;;;;;7.35;91.12;100361.94;5013979;28;20026;-77
2022/02/18 04:23:29;;;;;;;69.60;6.22;;;;;;;7.32;90.89;100367.63;4996830;28;20109;-78
2022/02/18 04:25:54;;;;;;;58.33;6.25;;;;;;;7.30;91.29;100361.63;5014735;28;20038;-79
2022/02/18 04:28:19;;;;;;;62.60;6.75;;;;;;;7.30;90.88;100345.56;5012466;28;20026;-78
2022/02/18 04:30:45;;;;;;;42.70;4.93;;;;;;;7.37;90.98;100335.81;5022620;28;20056;-79
2022/02/18 04:33:15;;;;;;;59.28;6.28;;;;;;;7.38;90.50;100332.16;5030117;28;20030;-79
2022/02/18 04:35:40;;;;;;;66.57;7.63;;;;;;;7.41;90.44;100316.56;5025522;28;20034;-78
2022/02/18 04:38:05;;;;;;;55.60;6.80;;;;;;;7.41;90.11;100316.56;5026885;28;20125;-78
2022/02/18 04:40:30;;;;;;;64.95;8.52;;;;;;;7.41;90.29;100307.69;5017115;28;20030;-78
2022/02/18 04:42:56;;;;;;;57.03;6.43;;;;;;;7.45;89.79;100282.22;5016652;28;20034;-78
2022/02/18 04:45:21;;;;;;;56.08;6.00;;;;;;;7.48;88.95;100272.03;5016134;28;20034;-77
2022/02/18 04:47:46;;;;;;;52.85;5.68;;;;;;;7.52;88.70;100256.41;5013796;28;20109;-77
2022/02/18 04:50:12;;;;;;;49.65;5.80;;;;;;;7.51;88.61;100238.69;5012207;28;20065;-77
2022/02/18 04:52:37;;;;;;;66.85;7.15;;;;;;;7.53;88.35;100230.47;5012571;28;20359;-76
2022/02/18 04:55:05;;;;;;;51.65;6.13;;;;;;;7.49;88.78;100227.31;5012507;28;20041;-77
2022/02/18 04:57:31;;;;;;;53.22;7.13;;;;;;;7.55;88.30;100231.97;5012881;28;20025;-78
2022/02/18 04:59:56;;;;;;;50.83;5.35;;;;;;;7.52;88.57;100235.00;5014879;28;20029;-78
2022/02/18 05:02:22;;;;;;;47.83;5.85;;;;;;;7.51;88.11;100228.00;5018158;28;20473;-80
2022/02/18 05:04:47;;;;;;;55.35;6.45;;;;;;;7.53;88.04;100225.97;5018289;28;20029;-80
2022/02/18 05:07:12;;;;;;;54.50;5.28;;;;;;;7.56;87.52;100209.56;5020555;28;20058;-79
2022/02/18 05:09:38;;;;;;;53.03;5.68;;;;;;;7.60;86.79;100200.13;5019970;28;20113;-79
2022/02/18 05:12:04;;;;;;;44.88;4.95;;;;;;;7.62;86.67;100176.69;5020977;28;20384;-80
2022/02/18 05:14:29;;;;;;;43.20;4.53;;;;;;;7.61;86.88;100160.78;5019851;28;20445;-78
2022/02/18 05:16:54;;;;;;;46.42;4.95;;;;;;;7.55;86.77;100159.66;5017466;28;20377;-77
2022/02/18 05:19:20;;;;;;;48.05;4.55;;;;;;;7.42;87.87;100154.06;5022545;28;20450;-79
2022/02/18 05:21:45;;;;;;;47.75;5.65;;;;;;;7.39;88.15;100143.72;5031204;28;20069;-78
2022/02/18 05:24:11;;;;;;;45.55;5.47;;;;;;;7.43;88.40;100142.38;5034138;28;20045;-79
2022/02/18 05:26:36;;;;;;;59.75;5.72;;;;;;;7.46;88.13;100139.34;5036976;28;20033;-78
2022/02/18 05:29:04;;;;;;;56.35;6.45;;;;;;;7.41;87.86;100131.00;5033599;28;20033;-79
2022/02/18 05:31:29;;;;;;;56.10;5.75;;;;;;;7.41;87.90;100106.91;5010775;28;20105;-80
2022/02/18 05:33:54;;;;;;;47.53;5.10;;;;;;;7.42;87.40;100097.84;5021602;28;20453;-81
2022/02/18 05:36:20;;;;;;;50.40;7.00;;;;;;;7.39;87.34;100091.00;5028663;28;20108;-79
2022/02/18 05:38:46;;;;;;;40.38;5.18;;;;;;;7.49;87.47;100082.75;5021784;28;20042;-77
2022/02/18 05:41:16;;;;;;;62.33;5.93;;;;;;;7.38;87.37;100065.28;5020098;28;20437;-80
2022/02/18 05:43:42;;;;;;;44.30;5.30;;;;;;;7.41;87.44;100050.69;5028907;28;20022;-81
2022/02/18 05:46:07;;;;;;;50.13;6.25;;;;;;;7.44;87.04;100044.97;5021014;28;20038;-78
2022/02/18 05:48:33;;;;;;;44.83;5.13;;;;;;;7.39;86.87;100042.00;5017009;28;20052;-76
2022/02/18 05:51:01;;;;;;;39.45;4.55;;;;;;;7.40;86.72;100016.91;5016734;28;20108;-76
2022/02/18 05:53:26;;;;;;;42.15;5.57;;;;;;;7.47;86.06;100017.84;5006285;28;20022;-76
2022/02/18 05:55:52;;;;;;;39.72;4.63;;;;;;;7.56;85.21;99998.00;5009140;28;20030;-77
2022/02/18 05:58:17;;;;;;;45.92;5.18;;;;;;;7.54;85.44;99975.09;5014280;28;20029;-78
2022/02/18 06:00:42;;;;;;;50.40;5.13;;;;;;;7.48;85.91;99977.50;5002121;28;20038;-77
2022/02/18 06:03:07;;;;;;;42.45;4.55;;;;;;;7.49;86.30;99962.25;4997807;28;20036;-77
2022/02/18 06:05:33;;;;;;;54.30;5.95;;;;;;;7.41;86.70;99948.97;5014252;28;20038;-80
2022/02/18 06:07:58;;;;;;;40.85;4.85;;;;;;;7.39;87.01;99946.47;5010872;28;20050;-77
2022/02/18 06:10:23;;;;;;;46.00;5.25;;;;;;;7.42;87.98;99945.25;5000252;28;20025;-75
2022/02/18 06:12:49;;;;;;;34.53;5.03;;;;;;;7.29;89.64;99943.22;5014683;28;20022;-77
2022/02/18 06:15:15;;;;;;;53.13;6.53;;;;;;;7.15;91.20;99936.81;5016166;28;20053;-76
2022/02/18 06:17:40;;;;;;;36.38;5.72;;;;;;;7.03;92.28;99914.22;5015657;28;20029;-76
2022/02/18 06:20:09;;;;;;;55.03;5.80;;;;;;;6.94;93.77;99909.94;5012555;28;20021;-75
2022/02/18 06:22:38;;;;;;;35.22;5.68;;;;;;;6.94;94.80;99899.25;5013170;28;20028;-78
2022/02/18 06:25:08;;;;;;;34.35;5.90;;;;;;;6.83;95.49;99879.13;5014642;28;20029;-77
2022/02/18 06:27:33;;;;;;;41.78;6.65;;;;;;;6.80;96.18;99866.13;5014294;28;20065;-77
2022/02/18 06:29:59;;;;;;;51.90;8.18;;;;;;;6.81;96.81;99863.25;5014493;28;20026;-78
2022/02/18 06:32:24;;;;;;;47.08;7.72;;;;;;;6.80;97.13;99855.41;4996304;28;20396;-81
2022/02/18 06:34:51;;;;;;;40.20;8.90;;;;;;;6.85;97.34;99836.16;5015235;28;20037;-77
2022/02/18 06:37:16;;;;;;;44.28;8.65;;;;;;;6.95;97.18;99847.41;5013361;28;20489;-77
2022/02/18 06:39:41;;;;;;;52.17;10.43;;;;;;;6.91;97.70;99843.44;5014710;28;20052;-78
2022/02/18 06:42:07;;;;;;;62.05;9.65;;;;;;;6.88;98.26;99844.63;5010710;28;20036;-78
2022/02/18 06:44:32;;;;;;;49.00;10.02;;;;;;;6.95;98.57;99826.00;5015074;28;20480;-76
2022/02/18 06:46:58;;;;;;;44.58;10.60;;;;;;;6.94;98.63;99819.00;4996129;28;20022;-78
2022/02/18 06:49:23;;;;;;;41.83;10.77;;;;;;;7.04;98.72;99831.09;4996619;28;20076;-78
2022/02/18 06:51:55;;;;;;;45.05;11.43;;;;;;;7.04;98.78;99815.03;5013752;28;20029;-77
2022/02/18 06:54:27;;;;;;;38.45;10.63;;;;;;;7.08;98.73;99802.09;5014300;28;20034;-79
2022/02/18 06:56:53;;;;;;;37.85;9.98;;;;;;;7.15;98.63;99799.53;4996574;28;20033;-78
2022/02/18 06:59:19;;;;;;;49.58;11.35;;;;;;;7.17;98.39;99790.31;5016130;28;20089;-77
2022/02/18 07:01:47;;;;;;;55.00;13.07;;;;;;;7.22;98.56;99790.59;5013317;28;20030;-77
2022/02/18 07:04:12;;;;;;;55.85;14.02;;;;;;;7.25;99.28;99771.47;5014339;28;20041;-77
2022/02/18 07:06:37;;;;;;;49.88;13.48;;;;;;;7.28;99.20;99756.06;5015967;28;20049;-77
2022/02/18 07:09:07;;;;;;;50.13;14.52;;;;;;;7.23;99.78;99764.66;5014444;28;20109;-78
2022/02/18 07:11:32;;;;;;;44.58;13.25;;;;;;;7.29;100.00;99747.84;4995652;28;20029;-77
2022/02/18 07:13:57;;;;;;;52.42;12.90;;;;;;;7.30;100.00;99746.00;5013830;28;20057;-76
2022/02/18 07:16:23;;;;;;;43.58;12.70;;;;;;;7.29;100.00;99728.28;5012729;28;20188;-78
2022/02/18 07:18:48;;;;;;;42.17;13.23;;;;;;;7.25;100.00;99727.84;4992312;28;20392;-79
2022/02/18 07:21:13;;;;;;;56.53;13.45;;;;;;;7.26;100.00;99732.16;4993683;28;20113;-78
2022/02/18 07:23:38;;;;;;;41.00;13.30;;;;;;;7.24;100.00;99712.78;5012635;28;20053;-76
2022/02/18 07:26:05;;;;;;;49.22;14.93;;;;;;;7.27;100.00;99720.44;5008497;28;20033;-75
2022/02/18 07:28:30;;;;;;;47.47;14.50;;;;;;;7.31;100.00;99694.94;5012978;28;20533;-76
2022/02/18 07:30:58;;;;;;;36.33;13.35;;;;;;;7.34;100.00;99688.41;5013971;28;20428;-75
2022/02/18 07:33:23;;;;;;;47.95;14.80;;;;;;;7.36;100.00;99683.69;5005300;28;20064;-75
2022/02/18 07:35:49;;;;;;;57.00;15.70;;;;;;;7.41;100.00;99681.28;5012984;28;20439;-74
2022/02/18 07:38:15;;;;;;;50.22;15.60;;;;;;;7.43;100.00;99671.22;5011172;28;20058;-76
2022/02/18 07:40:42;;;;;;;50.38;16.40;;;;;;;7.45;100.00;99677.19;5012461;28;20046;-75
2022/02/18 07:43:07;;;;;;;45.38;17.58;;;;;;;7.49;100.00;99662.41;5010555;28;20109;-75
2022/02/18 07:45:33;;;;;;;57.58;19.33;;;;;;;7.56;100.00;99657.97;5012046;28;20378;-75
2022/02/18 07:47:58;;;;;;;50.70;18.20;;;;;;;7.57;100.00;99648.06;5019744;28;20089;-77
2022/02/18 07:50:24;;;;;;;45.38;18.95;;;;;;;7.63;100.00;99642.75;5018236;28;20033;-78
2022/02/18 07:52:50;;;;;;;48.90;21.30;;;;;;;7.66;100.00;99642.41;5004623;28;20030;-76
2022/02/18 07:55:16;;;;;;;58.03;20.83;;;;;;;7.75;100.00;99639.59;5021817;28;20064;-76
2022/02/18 07:57:41;;;;;;;53.60;19.58;;;;;;;7.76;100.00;99630.50;5023108;28;20030;-76
2022/02/18 08:00:08;;;;;;;51.40;18.75;;;;;;;7.79;100.00;99671.13;5031991;28;20034;-77
2022/02/18 08:02:33;;;;;;;52.85;18.83;;;;;;;7.84;100.00;99612.44;5033453;28;20053;-77
2022/02/18 08:07:05;;;;;;;49.67;17.75;;;;;;;7.96;100.00;99599.34;5068675;28;20391;-48
2022/02/18 08:09:33;;;;;;;49.63;16.98;;;;;;;8.04;100.00;99614.47;5048461;28;20403;-49
2022/02/18 08:11:58;;;;;;;45.30;15.85;;;;;;;8.12;100.00;99587.50;5055937;28;20033;-48
2022/02/18 08:14:23;;;;;;;42.92;14.68;;;;;;;8.22;100.00;99579.13;5065694;28;20525;-47
2022/02/18 08:16:49;;;;;;;40.75;11.93;;;;;;;8.30;100.00;99585.13;5048331;28;20118;-51
2022/02/18 08:19:14;;;;;;;35.83;11.93;;;;;;;8.39;100.00;99560.84;5051062;28;20116;-47
2022/02/18 08:21:39;;;;;;;37.05;11.40;;;;;;;8.43;100.00;99565.66;5047320;28;20026;-47
2022/02/18 08:24:05;;;;;;;31.02;11.10;;;;;;;8.49;100.00;99567.53;5048695;28;20021;-47
2022/02/18 08:26:32;;;;;;;32.95;11.27;;;;;;;8.54;100.00;99564.25;5048496;28;20029;-46
2022/02/18 08:28:57;;;;;;;27.98;9.75;;;;;;;8.61;100.00;99558.91;5033366;28;20031;-46
2022/02/18 08:31:23;;;;;;;36.20;10.82;;;;;;;8.62;100.00;99556.03;5048259;28;20040;-47
2022/02/18 08:33:48;;;;;;;32.85;10.25;;;;;;;8.67;100.00;99552.75;5051484;28;20426;-46
2022/02/18 08:36:13;;;;;;;37.75;10.68;;;;;;;8.71;100.00;99530.66;5044951;28;20063;-47
2022/02/18 08:38:40;;;;;;;29.70;9.15;;;;;;;8.76;100.00;99530.88;5046922;28;20044;-50
2022/02/18 08:41:05;;;;;;;29.83;8.60;;;;;;;8.77;99.94;99513.78;5063036;28;20047;-48
2022/02/18 08:43:31;;;;;;;26.20;8.63;;;;;;;8.78;99.85;99496.66;5049638;28;20021;-50
2022/02/18 08:45:57;;;;;;;27.17;8.48;;;;;;;8.84;99.87;99500.38;5046748;28;20033;-49
2022/02/18 08:48:22;;;;;;;24.33;8.10;;;;;;;8.92;99.03;99512.75;5048639;28;20030;-47
2022/02/18 08:50:47;;;;;;;24.35;6.80;;;;;;;8.95;98.80;99494.41;5048340;28;20424;-49
2022/02/18 08:53:14;;;;;;;21.83;7.28;;;;;;;9.01;98.71;99498.13;5048311;28;20471;-48
2022/02/18 08:55:40;;;;;;;20.63;5.77;;;;;;;9.08;97.99;99487.41;5048333;28;20160;-50
2022/02/18 08:58:05;;;;;;;19.45;5.68;;;;;;;9.13;97.95;99468.81;5048371;28;20272;-49
2022/02/18 09:00:31;;;;;;;16.92;5.63;;;;;;;9.20;97.50;99477.72;5048237;28;20033;-48
2022/02/18 09:02:56;;;;;;;15.82;5.50;;;;;;;9.27;97.06;99451.69;5048201;28;20029;-47
2022/02/18 09:05:21;;;;;;;17.13;4.63;;;;;;;9.29;96.90;99452.28;5047201;28;20052;-49
2022/02/18 09:07:47;;;;;;;19.42;4.53;;;;;;;9.35;96.84;99446.09;5046690;28;20437;-46
2022/02/18 09:10:12;;;;;;;12.77;3.72;;;;;;;9.39;96.69;99428.53;5048146;28;20395;-47
2022/02/18 09:12:39;;;;;;;13.25;3.85;;;;;;;9.49;96.39;99438.03;5047541;28;20025;-49
2022/02/18 09:15:06;;;;;;;12.73;3.70;;;;;;;9.53;96.20;99415.94;5048114;28;20391;-48
2022/02/18 09:17:32;;;;;;;12.27;4.43;;;;;;;9.57;95.98;99410.94;5039810;28;20025;-49
2022/02/18 09:19:58;;;;;;;18.95;4.10;;;;;;;9.61;95.86;99388.00;5034636;28;20036;-49
2022/02/18 09:22:24;;;;;;;11.40;3.55;;;;;;;9.67;95.71;99389.84;5034444;28;20021;-48
2022/02/18 09:24:49;;;;;;;8.70;3.00;;;;;;;9.70;95.41;99392.09;5034334;28;20436;-46
2022/02/18 09:27:15;;;;;;;10.82;3.10;;;;;;;9.73;95.33;99374.75;5034592;28;20018;-51
2022/02/18 09:29:40;;;;;;;9.68;2.80;;;;;;;9.75;95.19;99378.88;5034211;28;20032;-48
2022/02/18 09:32:06;;;;;;;7.85;3.00;;;;;;;9.81;95.24;99361.06;5033679;28;20030;-48
2022/02/18 09:34:31;;;;;;;9.40;2.55;;;;;;;9.91;94.63;99352.56;5033893;28;20029;-48
2022/02/18 09:36:57;;;;;;;6.28;2.72;;;;;;;9.88;95.04;99360.00;5032537;28;20039;-50
2022/02/18 09:39:22;;;;;;;8.77;2.88;;;;;;;9.89;95.45;99374.25;5033657;28;20116;-49
2022/02/18 09:41:48;;;;;;;6.20;2.33;;;;;;;9.93;95.06;99345.09;5032987;28;20139;-48
2022/02/18 09:44:14;;;;;;;6.68;2.58;;;;;;;9.94;95.30;99341.38;5033819;28;20057;-48
2022/02/18 09:46:40;;;;;;;9.05;2.88;;;;;;;9.99;95.33;99342.38;5034132;28;20468;-48
2022/02/18 09:49:06;;;;;;;4.88;2.45;;;;;;;9.97;95.62;99335.56;5033901;28;20057;-48
2022/02/18 09:51:33;;;;;;;8.23;2.65;;;;;;;9.97;95.70;99349.81;5033529;28;20192;-47
2022/02/18 09:53:58;;;;;;;4.65;2.33;;;;;;;10.01;95.79;99336.78;5033622;28;20029;-50
2022/02/18 09:56:24;;;;;;;6.15;2.42;;;;;;;10.02;95.57;99325.00;5033536;28;20084;-47
2022/02/18 09:58:51;;;;;;;4.85;2.30;;;;;;;10.04;95.84;99315.66;5033512;28;20033;-50
2022/02/18 10:01:16;;;;;;;7.53;2.30;;;;;;;10.07;95.70;99314.41;5033683;28;20029;-51
2022/02/18 10:03:42;;;;;;;6.32;2.17;;;;;;;10.07;96.01;99319.78;5032034;28;20033;-49
2022/02/18 10:06:07;;;;;;;6.85;2.13;;;;;;;10.06;96.33;99293.97;5033372;28;20408;-47
2022/02/18 10:08:32;;;;;;;10.70;2.90;;;;;;;10.04;96.83;99290.66;5033072;28;20021;-48
2022/02/18 10:11:06;;;;;;;8.18;2.38;;;;;;;10.01;97.28;99307.22;5033004;28;20112;-50
2022/02/18 10:13:37;;;;;;;6.78;2.60;;;;;;;9.99;97.87;99277.06;5036410;28;20468;-50
2022/02/18 10:16:04;;;;;;;6.50;2.55;;;;;;;9.98;98.68;99275.38;5032850;28;20037;-47
2022/02/18 10:18:50;;;;;;;8.88;3.00;;;;;;;9.94;99.63;99263.44;5033088;28;20030;-47
2022/02/18 10:21:32;;;;;;;6.30;3.13;;;;;;;9.94;99.71;99263.44;5030454;28;20041;-47
2022/02/18 10:24:09;;;;;;;4.25;2.58;;;;;;;9.94;100.00;99263.44;5034067;28;20029;-46
2022/02/18 10:26:38;;;;;;;5.40;2.88;;;;;;;9.88;100.00;99265.13;5027367;28;20108;-46
2022/02/18 10:29:04;;;;;;;6.93;3.00;;;;;;;9.80;100.00;99260.84;5024974;28;20034;-49
2022/02/18 10:31:29;;;;;;;8.57;3.72;;;;;;;9.77;100.00;99236.25;5032149;28;20036;-51
2022/02/18 10:34:04;;;;;;;6.10;3.78;;;;;;;9.75;100.00;99217.66;5037664;28;20025;-48
2022/02/18 10:36:41;;;;;;;6.90;3.97;;;;;;;9.74;100.00;99225.94;5033312;28;20175;-50
2022/02/18 10:39:25;;;;;;;10.40;4.20;;;;;;;9.77;100.00;99204.84;5033405;28;20041;-51
2022/02/18 10:41:59;;;;;;;7.57;3.72;;;;;;;9.78;100.00;99206.47;5046058;28;20017;-50
2022/02/18 10:44:26;;;;;;;6.22;4.32;;;;;;;9.81;100.00;99222.16;5033084;28;20392;-50
2022/02/18 10:46:58;;;;;;;8.82;3.65;;;;;;;9.81;100.00;99173.81;5038539;28;20025;-47
2022/02/18 10:49:26;;;;;;;5.47;3.30;;;;;;;9.82;100.00;99170.09;5040002;28;20060;-50
2022/02/18 10:51:52;;;;;;;5.43;3.85;;;;;;;9.85;100.00;99163.47;5045133;28;20130;-49
2022/02/18 10:54:17;;;;;;;7.80;3.75;;;;;;;9.84;100.00;99164.47;5031676;28;20132;-49
2022/02/18 10:56:43;;;;;;;6.70;4.18;;;;;;;9.89;100.00;99157.41;5033923;28;20025;-49
2022/02/18 10:59:08;;;;;;;6.72;3.75;;;;;;;9.93;100.00;99157.00;5034936;28;20022;-48
2022/02/18 11:01:43;;;;;;;4.47;3.30;;;;;;;9.93;100.00;99149.75;5040336;28;20025;-52
2022/02/18 11:04:09;;;;;;;4.18;3.47;;;;;;;9.93;100.00;99154.31;5032955;28;20068;-48
2022/02/18 11:06:37;;;;;;;4.57;3.60;;;;;;;9.95;100.00;99150.34;5031905;28;20084;-50
2022/02/18 11:09:06;;;;;;;7.00;4.00;;;;;;;9.94;100.00;99161.31;5049147;28;20028;-52
2022/02/18 11:11:45;;;;;;;7.90;4.50;;;;;;;9.83;100.00;99169.03;5053304;28;20029;-52
2022/02/18 11:14:12;;;;;;;15.13;2.63;;;;;;;9.34;100.00;99218.09;5048748;28;20037;-52
2022/02/18 11:16:43;;;;;;;10.60;1.67;;;;;;;9.28;99.33;99158.03;5033926;28;20385;-49
2022/02/18 11:19:08;;;;;;;8.82;1.35;;;;;;;9.17;96.28;99181.00;5039518;28;20466;-49
2022/02/18 11:21:34;;;;;;;23.67;2.40;;;;;;;9.28;93.53;99166.09;5044553;28;20018;-50
2022/02/18 11:24:02;;;;;;;11.48;2.03;;;;;;;9.33;92.90;99184.25;5048344;28;20375;-49
2022/02/18 11:26:30;;;;;;;24.30;2.65;;;;;;;9.34;92.10;99175.94;5042380;28;20037;-48